createdAt,value
2023-03-07T00:00:05.748Z,7.33
2023-03-07T00:02:38.477Z,6.80
2023-03-07T00:05:14.019Z,7.87
2023-03-07T00:07:46.878Z,7.13
2023-03-07T00:10:19.667Z,7.57
2023-03-07T00:12:53.933Z,7.80
2023-03-07T00:15:29.064Z,7.97
2023-03-07T00:18:04.712Z,9.30
2023-03-07T00:20:37.397Z,7.70
2023-03-07T00:23:10.134Z,7.97
2023-03-07T00:25:43.532Z,8.07
2023-03-07T00:28:17.736Z,8.93
2023-03-07T00:30:52.611Z,8.67
2023-03-07T00:33:25.275Z,8.53
2023-03-07T00:36:00.818Z,8.13
2023-03-07T00:38:33.996Z,8.70
2023-03-07T00:41:07.822Z,9.33
2023-03-07T00:43:41.992Z,8.90
2023-03-07T00:46:15.278Z,9.07
2023-03-07T00:48:48.060Z,8.80
2023-03-07T00:51:21.367Z,9.00
2023-03-07T00:53:54.295Z,9.30
2023-03-07T00:56:29.940Z,9.97
2023-03-07T00:59:04.463Z,9.10
2023-03-07T01:01:37.875Z,9.13
2023-03-07T01:04:10.729Z,9.87
2023-03-07T01:06:43.591Z,9.87
2023-03-07T01:09:16.349Z,10.50
2023-03-07T01:11:50.428Z,11.47
2023-03-07T01:14:24.507Z,11.03
2023-03-07T01:16:57.226Z,10.80
2023-03-07T01:19:32.666Z,10.17
2023-03-07T01:22:05.476Z,11.10
2023-03-07T01:24:39.947Z,11.23
2023-03-07T01:27:14.846Z,10.33
2023-03-07T01:29:51.491Z,10.13
2023-03-07T01:32:24.236Z,10.47
2023-03-07T01:34:57.264Z,10.17
2023-03-07T01:37:30.072Z,11.53
2023-03-07T01:40:04.923Z,11.07
2023-03-07T01:42:40.013Z,9.67
2023-03-07T01:45:27.531Z,10.80
2023-03-07T01:48:01.558Z,9.80
2023-03-07T01:50:34.190Z,10.30
2023-03-07T01:53:08.496Z,11.70
2023-03-07T01:55:41.151Z,10.40
2023-03-07T01:58:14.906Z,10.93
2023-03-07T02:00:47.761Z,11.47
2023-03-07T02:03:27.203Z,12.07
2023-03-07T02:06:03.490Z,12.53
2023-03-07T02:08:37.093Z,11.63
2023-03-07T02:11:10.033Z,12.60
2023-03-07T02:13:42.718Z,12.93
2023-03-07T02:16:15.507Z,13.53
2023-03-07T02:18:50.434Z,11.47
2023-03-07T02:21:29.765Z,12.50
2023-03-07T02:24:04.628Z,13.33
2023-03-07T02:26:44.276Z,13.43
2023-03-07T02:29:17.125Z,13.83
2023-03-07T02:31:49.840Z,14.53
2023-03-07T02:34:26.583Z,13.13
2023-03-07T02:37:06.048Z,13.60
2023-03-07T02:39:42.807Z,14.20
2023-03-07T02:42:19.086Z,14.90
2023-03-07T02:44:56.911Z,15.17
2023-03-07T02:47:29.669Z,14.63
2023-03-07T02:50:02.605Z,15.77
2023-03-07T02:52:37.380Z,15.90
2023-03-07T02:55:10.364Z,16.43
2023-03-07T02:57:44.658Z,16.70
2023-03-07T03:00:17.714Z,15.97
2023-03-07T03:02:50.465Z,16.97
2023-03-07T03:05:23.393Z,17.40
2023-03-07T03:07:57.288Z,17.70
2023-03-07T03:10:30.103Z,18.27
2023-03-07T03:13:04.207Z,18.60
2023-03-07T03:15:36.908Z,17.47
2023-03-07T03:18:09.658Z,17.00
2023-03-07T03:20:42.381Z,19.53
2023-03-07T03:23:15.265Z,16.87
2023-03-07T03:25:57.699Z,17.23
2023-03-07T03:28:34.227Z,18.47
2023-03-07T03:31:08.394Z,18.10
2023-03-07T03:33:41.580Z,17.73
2023-03-07T03:36:16.636Z,15.70
2023-03-07T03:38:49.492Z,18.73
2023-03-07T03:41:22.181Z,17.67
2023-03-07T03:43:57.521Z,17.13
2023-03-07T03:46:30.296Z,16.53
2023-03-07T03:49:03.458Z,17.87
2023-03-07T03:51:38.444Z,16.40
2023-03-07T03:54:11.347Z,18.10
2023-03-07T03:56:44.106Z,18.40
2023-03-07T03:59:18.258Z,16.53
2023-03-07T04:01:51.266Z,18.20
2023-03-07T04:04:24.079Z,17.43
2023-03-07T04:06:56.705Z,15.83
2023-03-07T04:09:29.381Z,17.43
2023-03-07T04:12:02.067Z,17.97
2023-03-07T04:14:36.207Z,16.13
2023-03-07T04:17:09.294Z,16.97
2023-03-07T04:19:42.004Z,16.30
2023-03-07T04:22:14.762Z,16.27
2023-03-07T04:24:47.578Z,15.90
2023-03-07T04:27:20.344Z,17.23
2023-03-07T04:29:55.657Z,16.93
2023-03-07T04:32:28.445Z,14.93
2023-03-07T04:35:01.389Z,15.87
2023-03-07T04:37:34.065Z,16.97
2023-03-07T04:40:07.339Z,15.30
2023-03-07T04:42:40.109Z,16.17
2023-03-07T04:45:15.036Z,16.20
2023-03-07T04:47:52.001Z,16.67
2023-03-07T04:50:25.161Z,14.20
2023-03-07T04:52:57.828Z,17.63
2023-03-07T04:55:30.706Z,16.80
2023-03-07T04:58:03.965Z,15.87
2023-03-07T05:00:41.699Z,14.60
2023-03-07T05:03:14.917Z,15.07
2023-03-07T05:05:47.665Z,14.77
2023-03-07T05:08:20.321Z,16.20
2023-03-07T05:10:52.998Z,16.20
2023-03-07T05:13:25.771Z,14.73
2023-03-07T05:16:00.969Z,16.73
2023-03-07T05:18:33.725Z,13.63
2023-03-07T05:21:06.776Z,12.97
2023-03-07T05:23:45.377Z,15.83
2023-03-07T05:26:18.126Z,14.63
2023-03-07T05:28:50.856Z,15.37
2023-03-07T05:31:24.909Z,15.03
2023-03-07T05:33:57.668Z,14.63
2023-03-07T05:36:30.568Z,14.23
2023-03-07T05:39:03.360Z,13.00
2023-03-07T05:41:38.435Z,14.00
2023-03-07T05:44:25.016Z,15.53
2023-03-07T05:46:59.155Z,13.70
2023-03-07T05:49:31.761Z,14.43
2023-03-07T05:52:04.582Z,14.10
2023-03-07T05:54:37.486Z,13.30
2023-03-07T05:57:11.446Z,13.87
2023-03-07T05:59:44.273Z,14.63
2023-03-07T06:02:18.366Z,14.50
2023-03-07T06:04:51.106Z,12.13
2023-03-07T06:07:23.907Z,14.10
2023-03-07T06:09:56.580Z,11.53
2023-03-07T06:12:29.202Z,13.53
2023-03-07T06:15:01.975Z,15.43
2023-03-07T06:17:37.784Z,15.80
2023-03-07T06:20:11.308Z,13.90
2023-03-07T06:22:44.007Z,13.67
2023-03-07T06:25:16.947Z,13.70
2023-03-07T06:27:52.905Z,12.97
2023-03-07T06:30:25.859Z,14.27
2023-03-07T06:32:59.986Z,13.60
2023-03-07T06:35:32.693Z,12.47
2023-03-07T06:38:05.683Z,15.23
2023-03-07T06:40:38.705Z,14.77
2023-03-07T06:43:12.242Z,12.60
2023-03-07T06:45:45.003Z,14.53
2023-03-07T06:48:26.866Z,15.47
2023-03-07T06:50:59.395Z,14.13
2023-03-07T06:53:32.152Z,15.33
2023-03-07T06:56:05.368Z,15.30
2023-03-07T06:58:38.226Z,15.07
2023-03-07T07:01:16.259Z,14.63
2023-03-07T07:03:50.582Z,15.20
2023-03-07T07:06:23.287Z,9.43
2023-03-07T07:08:56.596Z,13.87
2023-03-07T07:11:29.623Z,14.33
2023-03-07T07:14:02.564Z,14.10
2023-03-07T07:16:36.352Z,13.43
2023-03-07T07:19:11.095Z,11.13
2023-03-07T07:21:44.019Z,12.63
2023-03-07T07:24:16.787Z,15.30
2023-03-07T07:26:49.456Z,13.67
2023-03-07T07:29:22.418Z,15.23
2023-03-07T07:31:55.348Z,13.67
2023-03-07T07:34:29.539Z,14.13
2023-03-07T07:37:07.546Z,11.10
2023-03-07T07:39:45.309Z,13.97
2023-03-07T07:42:18.113Z,14.63
2023-03-07T07:44:50.868Z,13.40
2023-03-07T07:47:23.796Z,13.10
2023-03-07T07:49:58.319Z,12.37
2023-03-07T07:52:33.728Z,13.23
2023-03-07T07:55:09.737Z,13.77
2023-03-07T07:57:46.835Z,12.67
2023-03-07T08:00:21.365Z,12.47
2023-03-07T08:02:57.038Z,13.17
2023-03-07T08:05:31.771Z,12.23
2023-03-07T08:08:04.819Z,13.40
2023-03-07T08:10:42.987Z,13.20
2023-03-07T08:13:15.867Z,12.40
2023-03-07T08:15:48.662Z,13.20
2023-03-07T08:18:21.710Z,13.50
2023-03-07T08:20:55.950Z,12.77
2023-03-07T08:23:31.814Z,12.87
2023-03-07T08:26:06.274Z,9.33
2023-03-07T08:28:39.277Z,11.50
2023-03-07T08:31:12.634Z,12.10
2023-03-07T08:33:47.041Z,11.80
2023-03-07T08:36:21.511Z,12.47
2023-03-07T08:38:54.295Z,12.37
2023-03-07T08:41:27.110Z,12.37
2023-03-07T08:43:59.823Z,11.13
2023-03-07T08:46:32.458Z,12.50
2023-03-07T08:49:05.209Z,11.47
2023-03-07T08:51:39.472Z,12.60
2023-03-07T08:54:12.358Z,10.93
2023-03-07T08:56:45.521Z,11.63
2023-03-07T08:59:18.390Z,13.33
2023-03-07T09:01:51.181Z,11.83
2023-03-07T09:04:26.009Z,12.57
2023-03-07T09:07:01.715Z,10.70
2023-03-07T09:09:34.925Z,12.83
2023-03-07T09:12:10.929Z,10.70
2023-03-07T09:14:45.882Z,11.63
2023-03-07T09:17:21.287Z,10.93
2023-03-07T09:19:54.027Z,10.37
2023-03-07T09:22:29.333Z,9.97
2023-03-07T09:25:01.997Z,9.97
2023-03-07T09:27:34.778Z,11.30
2023-03-07T09:30:08.493Z,10.37
2023-03-07T09:32:43.729Z,11.00
2023-03-07T09:35:16.780Z,11.00
2023-03-07T09:37:51.280Z,10.07
2023-03-07T09:40:25.386Z,8.77
2023-03-07T09:43:02.003Z,9.40
2023-03-07T09:45:58.120Z,9.80
2023-03-07T09:48:45.849Z,9.10
2023-03-07T09:51:19.943Z,10.83
2023-03-07T09:53:55.847Z,10.20
2023-03-07T09:56:30.599Z,9.03
2023-03-07T09:59:20.508Z,8.27
2023-03-07T10:01:59.742Z,8.23
2023-03-07T10:04:37.130Z,8.83
2023-03-07T10:07:10.805Z,7.40
2023-03-07T10:09:45.324Z,7.87
2023-03-07T10:12:28.424Z,8.27
2023-03-07T10:15:12.798Z,8.40
2023-03-07T10:18:05.998Z,8.30
2023-03-07T10:20:42.543Z,8.00
2023-03-07T10:23:28.991Z,7.07
2023-03-07T10:26:10.429Z,8.30
2023-03-07T10:28:44.510Z,7.80
2023-03-07T10:31:18.843Z,7.53
2023-03-07T10:33:52.106Z,6.03
2023-03-07T10:36:33.888Z,6.40
2023-03-07T10:39:13.923Z,6.50
2023-03-07T10:41:48.151Z,5.07
2023-03-07T10:44:21.965Z,4.47
2023-03-07T10:46:57.405Z,3.43
2023-03-07T10:49:32.505Z,3.47
2023-03-07T10:52:07.317Z,2.90
2023-03-07T10:54:40.393Z,3.30
2023-03-07T10:57:16.709Z,2.37
2023-03-07T10:59:50.027Z,2.20
2023-03-07T11:02:31.344Z,2.53
2023-03-07T11:05:07.001Z,2.73
2023-03-07T11:07:39.833Z,3.20
2023-03-07T11:10:25.165Z,3.47
2023-03-07T11:12:59.243Z,2.70
2023-03-07T11:15:32.235Z,4.10
2023-03-07T11:18:07.810Z,4.50
2023-03-07T11:20:49.464Z,3.37
2023-03-07T11:23:23.779Z,3.07
2023-03-07T11:25:57.307Z,3.87
2023-03-07T11:28:33.348Z,2.70
2023-03-07T11:31:11.280Z,3.23
2023-03-07T11:33:58.549Z,3.63
2023-03-07T11:36:36.715Z,2.83
2023-03-07T11:39:17.980Z,2.80
2023-03-07T11:41:55.901Z,2.40
2023-03-07T11:44:35.490Z,2.53
2023-03-07T11:47:18.187Z,1.87
2023-03-07T11:50:01.666Z,2.23
2023-03-07T11:52:44.557Z,1.93
2023-03-07T11:55:25.804Z,1.60
2023-03-07T11:58:09.273Z,1.80
2023-03-07T12:00:48.642Z,2.37
2023-03-07T12:03:38.401Z,2.23
2023-03-07T12:06:26.509Z,2.40
2023-03-07T12:09:14.704Z,1.83
2023-03-07T12:12:05.615Z,2.10
2023-03-07T12:14:43.199Z,2.70
2023-03-07T12:17:20.890Z,2.10
2023-03-07T12:20:16.011Z,2.03
2023-03-07T12:22:56.419Z,2.33
2023-03-07T12:25:32.916Z,1.80
2023-03-07T12:28:08.218Z,1.90
2023-03-07T12:30:50.328Z,3.53
2023-03-07T12:33:28.388Z,1.67
2023-03-07T12:36:04.011Z,2.13
2023-03-07T12:38:39.570Z,1.80
2023-03-07T12:41:21.450Z,1.90
2023-03-07T12:43:55.694Z,1.60
2023-03-07T12:46:34.037Z,2.30
2023-03-07T12:49:15.922Z,1.53
2023-03-07T12:51:49.812Z,2.00
2023-03-07T12:54:24.345Z,2.27
2023-03-07T12:57:01.028Z,2.03
2023-03-07T12:59:37.119Z,1.57
2023-03-07T13:02:12.915Z,2.33
2023-03-07T13:04:47.053Z,2.33
2023-03-07T13:07:24.477Z,2.10
2023-03-07T13:09:58.560Z,1.90
2023-03-07T13:12:35.221Z,2.47
2023-03-07T13:15:08.702Z,2.13
2023-03-07T13:17:58.604Z,2.60
2023-03-07T13:20:36.744Z,2.30
2023-03-07T13:23:27.605Z,2.87
2023-03-07T13:26:01.566Z,3.20
2023-03-07T13:28:48.744Z,3.00
2023-03-07T13:31:29.038Z,2.33
2023-03-07T13:34:16.630Z,2.20
2023-03-07T13:36:50.737Z,2.23
2023-03-07T13:39:38.300Z,2.90
2023-03-07T13:42:42.454Z,2.53
2023-03-07T13:45:34.007Z,2.13
2023-03-07T13:48:11.890Z,2.20
2023-03-07T13:50:59.920Z,1.93
2023-03-07T13:53:35.459Z,1.90
2023-03-07T13:56:11.751Z,2.40
2023-03-07T13:58:46.582Z,2.07
2023-03-07T14:01:20.460Z,2.20
2023-03-07T14:03:55.087Z,2.33
2023-03-07T14:06:30.750Z,2.57
2023-03-07T14:09:06.081Z,4.20
2023-03-07T14:11:42.677Z,2.30
2023-03-07T14:14:38.094Z,2.97
2023-03-07T14:17:18.453Z,2.30
2023-03-07T14:19:55.415Z,1.90
2023-03-07T14:22:34.904Z,1.93
2023-03-07T14:25:20.022Z,2.13
2023-03-07T14:27:54.138Z,2.00
2023-03-07T14:30:28.276Z,2.37
2023-03-07T14:33:01.511Z,2.43
2023-03-07T14:35:38.182Z,2.10
2023-03-07T14:38:19.077Z,2.37
2023-03-07T14:41:09.738Z,2.20
2023-03-07T14:43:49.293Z,2.10
2023-03-07T14:46:24.735Z,2.50
2023-03-07T14:49:02.602Z,2.10
2023-03-07T14:51:37.873Z,1.50
2023-03-07T14:54:15.191Z,1.90
2023-03-07T14:56:51.228Z,1.33
2023-03-07T14:59:29.164Z,1.73
2023-03-07T15:02:02.796Z,2.33
2023-03-07T15:04:38.624Z,1.93
2023-03-07T15:07:19.949Z,2.40
2023-03-07T15:09:52.802Z,1.73
2023-03-07T15:12:32.118Z,2.00
2023-03-07T15:15:06.316Z,2.03
2023-03-07T15:17:47.327Z,1.50
2023-03-07T15:20:21.292Z,2.63
2023-03-07T15:22:59.997Z,2.30
2023-03-07T15:25:33.543Z,2.10
2023-03-07T15:28:09.050Z,1.97
2023-03-07T15:30:42.311Z,2.50
2023-03-07T15:46:45.751Z,2.83
2023-03-07T15:49:20.117Z,3.40
2023-03-07T15:51:54.297Z,2.80
2023-03-07T15:54:33.409Z,2.67
2023-03-07T15:57:07.504Z,3.03
2023-03-07T15:59:42.641Z,2.53
2023-03-07T16:02:38.670Z,2.50
2023-03-07T16:05:29.265Z,2.50
2023-03-07T16:08:02.058Z,2.77
2023-03-07T16:10:34.933Z,2.50
2023-03-07T16:13:16.169Z,2.53
2023-03-07T16:15:58.960Z,3.07
2023-03-07T16:18:33.645Z,2.57
2023-03-07T16:21:06.638Z,2.57
2023-03-07T16:23:40.005Z,2.53
2023-03-07T16:26:15.340Z,2.90
2023-03-07T16:28:48.482Z,2.90
2023-03-07T16:31:21.751Z,2.90
2023-03-07T16:33:56.097Z,2.63
2023-03-07T16:36:29.344Z,3.00
2023-03-07T16:39:02.261Z,2.83
2023-03-07T16:41:37.446Z,2.90
2023-03-07T16:44:15.284Z,2.90
2023-03-07T16:46:51.532Z,2.90
2023-03-07T16:49:25.807Z,2.60
2023-03-07T16:52:05.586Z,2.50
2023-03-07T16:54:39.317Z,2.57
2023-03-07T16:57:18.340Z,2.43
2023-03-07T16:59:51.701Z,2.57
2023-03-07T17:02:25.480Z,2.80
2023-03-07T17:04:59.645Z,2.80
2023-03-07T17:07:32.314Z,3.13
2023-03-07T17:10:05.568Z,3.63
2023-03-07T17:12:38.361Z,3.17
2023-03-07T17:15:12.723Z,2.77
2023-03-07T17:17:45.916Z,2.80
2023-03-07T17:20:21.256Z,3.37
2023-03-07T17:22:54.446Z,3.17
2023-03-07T17:25:27.854Z,3.47
2023-03-07T17:28:01.666Z,3.90
2023-03-07T17:30:34.742Z,7.20
2023-03-07T17:33:07.608Z,3.10
2023-03-07T17:35:41.944Z,2.40
2023-03-07T17:38:14.717Z,3.30
2023-03-07T17:40:47.609Z,3.33
2023-03-07T17:43:20.593Z,3.30
2023-03-07T17:45:54.559Z,3.10
2023-03-07T17:48:27.711Z,4.10
2023-03-07T17:51:01.918Z,2.93
2023-03-07T17:53:35.925Z,3.17
2023-03-07T17:56:09.139Z,3.03
2023-03-07T17:58:42.778Z,3.27
2023-03-07T18:01:16.189Z,3.40
2023-03-07T18:03:49.067Z,2.70
2023-03-07T18:06:23.356Z,2.70
2023-03-07T18:08:56.231Z,3.77
2023-03-07T18:11:29.517Z,2.80
2023-03-07T18:14:03.650Z,2.20
2023-03-07T18:16:36.573Z,3.63
2023-03-07T18:19:20.440Z,3.30
2023-03-07T18:22:01.900Z,2.43
2023-03-07T18:24:34.825Z,3.07
2023-03-07T18:27:08.664Z,3.77
2023-03-07T18:29:45.021Z,3.10
2023-03-07T18:32:18.038Z,4.00
2023-03-07T18:34:52.197Z,3.77
2023-03-07T18:37:26.509Z,3.47
2023-03-07T18:39:59.390Z,2.60
2023-03-07T18:42:32.564Z,3.20
2023-03-07T18:45:05.835Z,3.27
2023-03-07T18:47:41.524Z,2.83
2023-03-07T18:50:14.222Z,3.37
2023-03-07T18:52:48.490Z,2.90
2023-03-07T18:55:23.810Z,3.07
2023-03-07T18:57:58.777Z,3.07
2023-03-07T19:00:32.367Z,2.80
2023-03-07T19:03:06.460Z,2.67
2023-03-07T19:05:42.743Z,2.77
2023-03-07T19:08:17.472Z,3.00
2023-03-07T19:10:51.905Z,3.30
2023-03-07T19:13:24.949Z,3.20
2023-03-07T19:16:01.848Z,2.50
2023-03-07T19:18:35.116Z,2.30
2023-03-07T19:21:08.400Z,3.23
2023-03-07T19:23:45.356Z,2.90
2023-03-07T19:26:18.902Z,2.70
2023-03-07T19:28:52.495Z,3.03
2023-03-07T19:31:26.437Z,2.37
2023-03-07T19:33:59.556Z,3.30
2023-03-07T19:36:34.536Z,3.60
2023-03-07T19:39:10.515Z,3.63
2023-03-07T19:41:45.351Z,2.80
2023-03-07T19:44:18.619Z,3.47
2023-03-07T19:46:51.507Z,3.67
2023-03-07T19:49:26.499Z,3.30
2023-03-07T19:51:59.706Z,3.50
2023-03-07T19:54:34.689Z,2.90
2023-03-07T19:57:09.147Z,3.93
2023-03-07T19:59:41.959Z,3.40
2023-03-07T20:02:14.635Z,3.60
2023-03-07T20:04:48.546Z,3.87
2023-03-07T20:07:21.644Z,3.73
2023-03-07T20:09:55.811Z,3.20
2023-03-07T20:12:31.681Z,4.60
2023-03-07T20:15:04.696Z,4.47
2023-03-07T20:17:37.747Z,4.07
2023-03-07T20:20:11.716Z,4.70
2023-03-07T20:22:44.479Z,4.20
2023-03-07T20:25:19.105Z,4.40
2023-03-07T20:27:52.000Z,4.80
2023-03-07T20:30:25.309Z,4.80
2023-03-07T20:32:58.328Z,5.10
2023-03-07T20:35:31.652Z,4.97
2023-03-07T20:38:04.795Z,4.97
2023-03-07T20:40:38.980Z,5.07
2023-03-07T20:43:11.934Z,5.27
2023-03-07T20:45:45.094Z,5.60
2023-03-07T20:48:23.678Z,4.87
2023-03-07T20:50:57.741Z,5.17
2023-03-07T20:53:30.677Z,5.60
2023-03-07T20:56:05.630Z,6.07
2023-03-07T20:58:39.209Z,5.70
2023-03-07T21:01:13.044Z,5.70
2023-03-07T21:03:46.134Z,5.73
2023-03-07T21:06:21.691Z,4.90
2023-03-07T21:08:54.460Z,5.17
2023-03-07T21:11:31.371Z,4.87
2023-03-07T21:14:04.501Z,5.63
2023-03-07T21:16:37.379Z,5.40
2023-03-07T21:19:11.393Z,5.40
2023-03-07T21:21:44.117Z,5.03
2023-03-07T21:24:17.769Z,5.30
2023-03-07T21:26:51.899Z,5.27
2023-03-07T21:29:24.763Z,5.30
2023-03-07T21:31:57.965Z,5.53
2023-03-07T21:34:30.681Z,6.13
2023-03-07T21:37:03.485Z,5.53
2023-03-07T21:39:36.324Z,6.00
2023-03-07T21:42:10.635Z,5.80
2023-03-07T21:44:43.427Z,5.40
2023-03-07T21:47:17.424Z,5.20
2023-03-07T21:49:50.306Z,3.87
2023-03-07T21:52:23.920Z,5.33
2023-03-07T21:54:56.571Z,4.63
2023-03-07T21:57:33.023Z,4.83
2023-03-07T22:00:08.443Z,5.50
2023-03-07T22:02:45.241Z,3.93
2023-03-07T22:05:18.011Z,5.07
2023-03-07T22:07:51.217Z,5.53
2023-03-07T22:10:24.168Z,4.93
2023-03-07T22:12:58.319Z,5.00
2023-03-07T22:15:32.978Z,4.73
2023-03-07T22:18:05.712Z,4.73
2023-03-07T22:20:41.474Z,4.57
2023-03-07T22:23:14.394Z,4.57
2023-03-07T22:25:50.347Z,4.63
2023-03-07T22:28:24.624Z,4.40
2023-03-07T22:31:03.578Z,4.00
2023-03-07T22:33:36.344Z,4.87
2023-03-07T22:36:11.613Z,4.40
2023-03-07T22:38:46.827Z,4.17
2023-03-07T22:41:19.788Z,4.33
2023-03-07T22:43:53.918Z,4.27
2023-03-07T22:46:26.772Z,3.00
2023-03-07T22:48:59.548Z,3.20
2023-03-07T22:51:32.305Z,3.57
2023-03-07T22:54:05.165Z,3.70
2023-03-07T22:56:37.865Z,3.70
2023-03-07T22:59:12.293Z,3.30
2023-03-07T23:01:45.029Z,3.30
2023-03-07T23:04:17.832Z,3.83
2023-03-07T23:06:50.554Z,3.17
2023-03-07T23:09:25.245Z,3.27
2023-03-07T23:11:58.054Z,4.30
2023-03-07T23:14:34.356Z,3.50
2023-03-07T23:17:07.185Z,3.70
2023-03-07T23:19:39.971Z,3.87
2023-03-07T23:22:14.650Z,2.97
2023-03-07T23:24:47.346Z,2.80
2023-03-07T23:27:20.094Z,3.73
2023-03-07T23:29:58.014Z,3.33
2023-03-07T23:32:31.781Z,3.00
2023-03-07T23:35:04.819Z,2.83
2023-03-07T23:37:37.521Z,3.10
2023-03-07T23:40:12.110Z,3.43
2023-03-07T23:42:52.251Z,3.03
2023-03-07T23:45:26.579Z,2.60
2023-03-07T23:48:02.384Z,3.73
2023-03-07T23:50:35.224Z,2.40
2023-03-07T23:53:08.443Z,3.03
2023-03-07T23:55:43.686Z,2.67
2023-03-07T23:58:16.445Z,2.87
